sensor_id;sensor_type;location;lat;lon;timestamp;P1;durP1;ratioP1;P2;durP2;ratioP2
35961;SDS011;22044;48.298;10.008;2023-01-06T00:00:17;3.67;;;3.37;;
35961;SDS011;22044;48.298;10.008;2023-01-06T00:03:03;3.67;;;3.37;;
35961;SDS011;22044;48.298;10.008;2023-01-06T00:05:49;3.70;;;3.40;;
35961;SDS011;22044;48.298;10.008;2023-01-06T00:08:36;4.03;;;3.63;;
35961;SDS011;22044;48.298;10.008;2023-01-06T00:11:24;4.30;;;3.90;;
35961;SDS011;22044;48.298;10.008;2023-01-06T00:14:10;4.03;;;3.60;;
35961;SDS011;22044;48.298;10.008;2023-01-06T00:16:55;4.67;;;3.80;;
35961;SDS011;22044;48.298;10.008;2023-01-06T00:19:41;4.50;;;3.90;;
35961;SDS011;22044;48.298;10.008;2023-01-06T00:22:26;4.07;;;3.67;;
35961;SDS011;22044;48.298;10.008;2023-01-06T00:25:13;3.67;;;3.37;;
35961;SDS011;22044;48.298;10.008;2023-01-06T00:27:59;5.33;;;4.10;;
35961;SDS011;22044;48.298;10.008;2023-01-06T00:30:45;6.63;;;4.20;;
35961;SDS011;22044;48.298;10.008;2023-01-06T00:33:30;4.30;;;3.90;;
35961;SDS011;22044;48.298;10.008;2023-01-06T00:36:16;4.13;;;3.73;;
35961;SDS011;22044;48.298;10.008;2023-01-06T00:39:03;5.07;;;4.20;;
35961;SDS011;22044;48.298;10.008;2023-01-06T00:41:50;4.60;;;4.20;;
35961;SDS011;22044;48.298;10.008;2023-01-06T00:44:48;6.10;;;4.20;;
35961;SDS011;22044;48.298;10.008;2023-01-06T00:47:34;5.53;;;5.03;;
35961;SDS011;22044;48.298;10.008;2023-01-06T00:50:20;4.83;;;4.37;;
35961;SDS011;22044;48.298;10.008;2023-01-06T00:53:06;5.77;;;5.07;;
35961;SDS011;22044;48.298;10.008;2023-01-06T00:55:58;4.77;;;4.30;;
35961;SDS011;22044;48.298;10.008;2023-01-06T00:58:45;4.87;;;4.47;;
35961;SDS011;22044;48.298;10.008;2023-01-06T01:01:31;5.27;;;4.77;;
35961;SDS011;22044;48.298;10.008;2023-01-06T01:04:16;5.77;;;5.17;;
35961;SDS011;22044;48.298;10.008;2023-01-06T01:07:02;5.00;;;4.50;;
35961;SDS011;22044;48.298;10.008;2023-01-06T01:09:48;5.37;;;4.87;;
35961;SDS011;22044;48.298;10.008;2023-01-06T01:12:33;6.27;;;4.90;;
35961;SDS011;22044;48.298;10.008;2023-01-06T01:15:20;5.57;;;5.07;;
35961;SDS011;22044;48.298;10.008;2023-01-06T01:18:05;5.60;;;5.10;;
35961;SDS011;22044;48.298;10.008;2023-01-06T01:20:51;5.63;;;4.90;;
35961;SDS011;22044;48.298;10.008;2023-01-06T01:23:37;5.97;;;5.20;;
35961;SDS011;22044;48.298;10.008;2023-01-06T01:26:23;6.47;;;5.73;;
35961;SDS011;22044;48.298;10.008;2023-01-06T01:29:09;6.00;;;5.37;;
35961;SDS011;22044;48.298;10.008;2023-01-06T01:31:56;7.67;;;5.83;;
35961;SDS011;22044;48.298;10.008;2023-01-06T01:34:42;6.93;;;5.60;;
35961;SDS011;22044;48.298;10.008;2023-01-06T01:37:27;6.07;;;5.40;;
35961;SDS011;22044;48.298;10.008;2023-01-06T01:40:14;7.70;;;5.37;;
35961;SDS011;22044;48.298;10.008;2023-01-06T01:43:00;6.07;;;5.47;;
35961;SDS011;22044;48.298;10.008;2023-01-06T01:45:45;6.80;;;5.47;;
35961;SDS011;22044;48.298;10.008;2023-01-06T01:48:34;7.03;;;6.03;;
35961;SDS011;22044;48.298;10.008;2023-01-06T01:51:22;7.20;;;6.50;;
35961;SDS011;22044;48.298;10.008;2023-01-06T01:54:12;7.17;;;6.47;;
35961;SDS011;22044;48.298;10.008;2023-01-06T01:57:03;7.27;;;6.53;;
35961;SDS011;22044;48.298;10.008;2023-01-06T01:59:50;6.80;;;6.10;;
35961;SDS011;22044;48.298;10.008;2023-01-06T02:02:35;7.90;;;7.10;;
35961;SDS011;22044;48.298;10.008;2023-01-06T02:05:23;7.03;;;6.23;;
35961;SDS011;22044;48.298;10.008;2023-01-06T02:08:12;9.17;;;6.97;;
35961;SDS011;22044;48.298;10.008;2023-01-06T02:11:04;7.23;;;6.40;;
35961;SDS011;22044;48.298;10.008;2023-01-06T02:13:51;7.17;;;6.47;;
35961;SDS011;22044;48.298;10.008;2023-01-06T02:16:48;7.90;;;6.70;;
35961;SDS011;22044;48.298;10.008;2023-01-06T02:19:54;10.07;;;7.47;;
35961;SDS011;22044;48.298;10.008;2023-01-06T02:23:11;7.20;;;6.50;;
35961;SDS011;22044;48.298;10.008;2023-01-06T02:26:29;7.27;;;6.57;;
35961;SDS011;22044;48.298;10.008;2023-01-06T02:33:18;10.80;;;8.10;;
35961;SDS011;22044;48.298;10.008;2023-01-06T02:36:10;8.50;;;7.63;;
35961;SDS011;22044;48.298;10.008;2023-01-06T02:39:09;8.10;;;7.30;;
35961;SDS011;22044;48.298;10.008;2023-01-06T02:42:06;9.37;;;8.40;;
35961;SDS011;22044;48.298;10.008;2023-01-06T02:45:01;10.30;;;8.10;;
35961;SDS011;22044;48.298;10.008;2023-01-06T02:47:55;10.10;;;8.17;;
35961;SDS011;22044;48.298;10.008;2023-01-06T02:50:50;9.23;;;8.30;;
35961;SDS011;22044;48.298;10.008;2023-01-06T02:53:45;12.67;;;8.70;;
35961;SDS011;22044;48.298;10.008;2023-01-06T02:56:36;9.87;;;8.47;;
35961;SDS011;22044;48.298;10.008;2023-01-06T02:59:29;11.50;;;9.23;;
35961;SDS011;22044;48.298;10.008;2023-01-06T03:02:20;9.67;;;8.40;;
35961;SDS011;22044;48.298;10.008;2023-01-06T03:05:09;9.97;;;8.97;;
35961;SDS011;22044;48.298;10.008;2023-01-06T03:07:59;10.13;;;9.13;;
35961;SDS011;22044;48.298;10.008;2023-01-06T03:10:50;9.40;;;8.43;;
35961;SDS011;22044;48.298;10.008;2023-01-06T03:13:38;8.97;;;8.07;;
35961;SDS011;22044;48.298;10.008;2023-01-06T03:16:30;11.10;;;9.53;;
35961;SDS011;22044;48.298;10.008;2023-01-06T03:19:15;11.17;;;9.90;;
35961;SDS011;22044;48.298;10.008;2023-01-06T03:22:02;9.43;;;8.50;;
35961;SDS011;22044;48.298;10.008;2023-01-06T03:24:50;10.87;;;9.70;;
35961;SDS011;22044;48.298;10.008;2023-01-06T03:27:39;12.07;;;9.40;;
35961;SDS011;22044;48.298;10.008;2023-01-06T03:30:26;10.23;;;9.10;;
35961;SDS011;22044;48.298;10.008;2023-01-06T03:33:20;10.30;;;8.77;;
35961;SDS011;22044;48.298;10.008;2023-01-06T03:36:12;10.57;;;9.37;;
35961;SDS011;22044;48.298;10.008;2023-01-06T03:39:05;11.40;;;9.30;;
35961;SDS011;22044;48.298;10.008;2023-01-06T03:41:59;10.70;;;9.60;;
35961;SDS011;22044;48.298;10.008;2023-01-06T03:45:08;10.77;;;9.67;;
35961;SDS011;22044;48.298;10.008;2023-01-06T03:48:08;10.87;;;9.77;;
35961;SDS011;22044;48.298;10.008;2023-01-06T03:51:00;10.90;;;9.47;;
35961;SDS011;22044;48.298;10.008;2023-01-06T03:53:52;12.93;;;10.50;;
35961;SDS011;22044;48.298;10.008;2023-01-06T03:56:45;11.43;;;9.67;;
35961;SDS011;22044;48.298;10.008;2023-01-06T03:59:37;11.70;;;10.17;;
35961;SDS011;22044;48.298;10.008;2023-01-06T04:02:25;12.47;;;9.87;;
35961;SDS011;22044;48.298;10.008;2023-01-06T04:05:13;10.27;;;8.73;;
35961;SDS011;22044;48.298;10.008;2023-01-06T04:08:01;13.33;;;9.97;;
35961;SDS011;22044;48.298;10.008;2023-01-06T04:10:48;13.33;;;10.50;;
35961;SDS011;22044;48.298;10.008;2023-01-06T04:13:34;12.67;;;10.53;;
35961;SDS011;22044;48.298;10.008;2023-01-06T04:16:20;11.90;;;10.63;;
35961;SDS011;22044;48.298;10.008;2023-01-06T04:19:06;11.60;;;10.33;;
35961;SDS011;22044;48.298;10.008;2023-01-06T04:21:52;13.90;;;11.00;;
35961;SDS011;22044;48.298;10.008;2023-01-06T04:24:37;12.97;;;10.63;;
35961;SDS011;22044;48.298;10.008;2023-01-06T04:27:24;14.03;;;11.07;;
35961;SDS011;22044;48.298;10.008;2023-01-06T04:30:10;15.50;;;12.37;;
35961;SDS011;22044;48.298;10.008;2023-01-06T04:32:58;16.23;;;12.17;;
35961;SDS011;22044;48.298;10.008;2023-01-06T04:35:44;15.37;;;11.03;;
35961;SDS011;22044;48.298;10.008;2023-01-06T04:38:33;18.40;;;11.40;;
35961;SDS011;22044;48.298;10.008;2023-01-06T04:41:19;15.27;;;11.93;;
35961;SDS011;22044;48.298;10.008;2023-01-06T04:44:05;16.60;;;12.23;;
35961;SDS011;22044;48.298;10.008;2023-01-06T04:46:50;14.13;;;11.47;;
35961;SDS011;22044;48.298;10.008;2023-01-06T04:49:37;16.63;;;11.53;;
35961;SDS011;22044;48.298;10.008;2023-01-06T04:52:23;15.73;;;12.40;;
35961;SDS011;22044;48.298;10.008;2023-01-06T04:55:09;14.93;;;11.80;;
35961;SDS011;22044;48.298;10.008;2023-01-06T04:57:54;15.93;;;11.33;;
35961;SDS011;22044;48.298;10.008;2023-01-06T05:00:40;17.37;;;12.53;;
35961;SDS011;22044;48.298;10.008;2023-01-06T05:03:25;16.10;;;12.10;;
35961;SDS011;22044;48.298;10.008;2023-01-06T05:06:12;15.40;;;11.50;;
35961;SDS011;22044;48.298;10.008;2023-01-06T05:08:58;16.50;;;12.30;;
35961;SDS011;22044;48.298;10.008;2023-01-06T05:11:44;17.17;;;12.27;;
35961;SDS011;22044;48.298;10.008;2023-01-06T05:14:29;15.47;;;11.37;;
35961;SDS011;22044;48.298;10.008;2023-01-06T05:17:15;16.63;;;12.37;;
35961;SDS011;22044;48.298;10.008;2023-01-06T05:20:01;15.77;;;12.27;;
35961;SDS011;22044;48.298;10.008;2023-01-06T05:22:48;16.47;;;12.53;;
35961;SDS011;22044;48.298;10.008;2023-01-06T05:25:33;15.33;;;11.63;;
35961;SDS011;22044;48.298;10.008;2023-01-06T05:28:19;17.77;;;12.40;;
35961;SDS011;22044;48.298;10.008;2023-01-06T05:31:05;16.13;;;11.87;;
35961;SDS011;22044;48.298;10.008;2023-01-06T05:33:51;16.73;;;12.30;;
35961;SDS011;22044;48.298;10.008;2023-01-06T05:36:36;15.50;;;11.57;;
35961;SDS011;22044;48.298;10.008;2023-01-06T05:39:23;21.23;;;11.87;;
35961;SDS011;22044;48.298;10.008;2023-01-06T05:42:09;17.50;;;11.80;;
35961;SDS011;22044;48.298;10.008;2023-01-06T05:44:54;20.73;;;12.27;;
35961;SDS011;22044;48.298;10.008;2023-01-06T05:47:40;17.27;;;12.53;;
35961;SDS011;22044;48.298;10.008;2023-01-06T05:50:25;18.70;;;12.40;;
35961;SDS011;22044;48.298;10.008;2023-01-06T05:53:11;18.37;;;12.73;;
35961;SDS011;22044;48.298;10.008;2023-01-06T05:55:59;17.33;;;12.33;;
35961;SDS011;22044;48.298;10.008;2023-01-06T05:58:45;18.93;;;12.63;;
35961;SDS011;22044;48.298;10.008;2023-01-06T06:01:32;17.50;;;12.60;;
35961;SDS011;22044;48.298;10.008;2023-01-06T06:04:18;22.23;;;12.60;;
35961;SDS011;22044;48.298;10.008;2023-01-06T06:07:04;20.83;;;13.03;;
35961;SDS011;22044;48.298;10.008;2023-01-06T06:09:49;32.77;;;12.83;;
35961;SDS011;22044;48.298;10.008;2023-01-06T06:12:36;19.97;;;12.13;;
35961;SDS011;22044;48.298;10.008;2023-01-06T06:15:22;18.47;;;12.43;;
35961;SDS011;22044;48.298;10.008;2023-01-06T06:18:08;23.63;;;11.97;;
35961;SDS011;22044;48.298;10.008;2023-01-06T06:20:58;17.57;;;11.87;;
35961;SDS011;22044;48.298;10.008;2023-01-06T06:23:44;17.57;;;12.10;;
35961;SDS011;22044;48.298;10.008;2023-01-06T06:26:29;20.50;;;12.43;;
35961;SDS011;22044;48.298;10.008;2023-01-06T06:29:16;24.03;;;12.83;;
35961;SDS011;22044;48.298;10.008;2023-01-06T06:32:02;18.93;;;12.20;;
35961;SDS011;22044;48.298;10.008;2023-01-06T06:34:47;15.00;;;11.17;;
35961;SDS011;22044;48.298;10.008;2023-01-06T06:37:33;18.43;;;12.83;;
35961;SDS011;22044;48.298;10.008;2023-01-06T06:40:18;17.00;;;11.33;;
35961;SDS011;22044;48.298;10.008;2023-01-06T06:43:04;18.57;;;12.43;;
35961;SDS011;22044;48.298;10.008;2023-01-06T06:45:51;16.73;;;11.90;;
35961;SDS011;22044;48.298;10.008;2023-01-06T06:48:36;21.23;;;11.97;;
35961;SDS011;22044;48.298;10.008;2023-01-06T06:51:22;21.20;;;12.30;;
35961;SDS011;22044;48.298;10.008;2023-01-06T06:54:08;19.30;;;12.57;;
35961;SDS011;22044;48.298;10.008;2023-01-06T06:56:54;20.17;;;11.73;;
35961;SDS011;22044;48.298;10.008;2023-01-06T06:59:39;17.67;;;11.50;;
35961;SDS011;22044;48.298;10.008;2023-01-06T07:02:26;24.00;;;12.53;;
35961;SDS011;22044;48.298;10.008;2023-01-06T07:05:12;16.13;;;11.23;;
35961;SDS011;22044;48.298;10.008;2023-01-06T07:07:58;19.20;;;11.77;;
35961;SDS011;22044;48.298;10.008;2023-01-06T07:10:43;16.47;;;10.93;;
35961;SDS011;22044;48.298;10.008;2023-01-06T07:13:29;18.43;;;11.27;;
35961;SDS011;22044;48.298;10.008;2023-01-06T07:16:14;20.73;;;12.00;;
35961;SDS011;22044;48.298;10.008;2023-01-06T07:19:02;24.33;;;12.20;;
35961;SDS011;22044;48.298;10.008;2023-01-06T07:21:47;21.77;;;11.83;;
35961;SDS011;22044;48.298;10.008;2023-01-06T07:24:33;20.97;;;11.37;;
35961;SDS011;22044;48.298;10.008;2023-01-06T07:27:19;16.33;;;10.27;;
35961;SDS011;22044;48.298;10.008;2023-01-06T07:30:05;19.07;;;10.73;;
35961;SDS011;22044;48.298;10.008;2023-01-06T07:32:51;19.77;;;12.10;;
35961;SDS011;22044;48.298;10.008;2023-01-06T07:35:38;23.70;;;11.17;;
35961;SDS011;22044;48.298;10.008;2023-01-06T07:38:24;14.93;;;10.17;;
35961;SDS011;22044;48.298;10.008;2023-01-06T07:41:09;20.00;;;10.37;;
35961;SDS011;22044;48.298;10.008;2023-01-06T07:43:55;18.67;;;10.27;;
35961;SDS011;22044;48.298;10.008;2023-01-06T07:46:40;16.90;;;10.83;;
35961;SDS011;22044;48.298;10.008;2023-01-06T07:49:26;17.47;;;10.67;;
35961;SDS011;22044;48.298;10.008;2023-01-06T07:52:13;13.03;;;9.37;;
35961;SDS011;22044;48.298;10.008;2023-01-06T07:54:58;18.53;;;10.63;;
35961;SDS011;22044;48.298;10.008;2023-01-06T07:57:44;19.70;;;10.87;;
35961;SDS011;22044;48.298;10.008;2023-01-06T08:00:30;16.97;;;11.23;;
35961;SDS011;22044;48.298;10.008;2023-01-06T08:03:15;18.70;;;12.20;;
35961;SDS011;22044;48.298;10.008;2023-01-06T08:06:04;18.33;;;12.07;;
35961;SDS011;22044;48.298;10.008;2023-01-06T08:08:52;19.33;;;11.67;;
35961;SDS011;22044;48.298;10.008;2023-01-06T08:11:37;19.10;;;12.80;;
35961;SDS011;22044;48.298;10.008;2023-01-06T08:14:23;19.43;;;12.07;;
35961;SDS011;22044;48.298;10.008;2023-01-06T08:17:09;17.87;;;11.63;;
35961;SDS011;22044;48.298;10.008;2023-01-06T08:19:54;20.20;;;12.70;;
35961;SDS011;22044;48.298;10.008;2023-01-06T08:22:40;21.13;;;13.17;;
35961;SDS011;22044;48.298;10.008;2023-01-06T08:25:27;19.37;;;12.67;;
35961;SDS011;22044;48.298;10.008;2023-01-06T08:28:13;21.47;;;12.60;;
35961;SDS011;22044;48.298;10.008;2023-01-06T08:30:58;19.07;;;11.90;;
35961;SDS011;22044;48.298;10.008;2023-01-06T08:33:44;22.57;;;13.70;;
35961;SDS011;22044;48.298;10.008;2023-01-06T08:36:30;24.73;;;15.03;;
35961;SDS011;22044;48.298;10.008;2023-01-06T08:39:16;23.87;;;13.90;;
35961;SDS011;22044;48.298;10.008;2023-01-06T08:42:03;22.37;;;14.13;;
35961;SDS011;22044;48.298;10.008;2023-01-06T08:44:49;26.27;;;13.03;;
35961;SDS011;22044;48.298;10.008;2023-01-06T08:47:34;23.23;;;14.43;;
35961;SDS011;22044;48.298;10.008;2023-01-06T08:50:20;25.53;;;16.70;;
35961;SDS011;22044;48.298;10.008;2023-01-06T08:53:06;25.50;;;14.57;;
35961;SDS011;22044;48.298;10.008;2023-01-06T08:55:52;27.30;;;16.67;;
35961;SDS011;22044;48.298;10.008;2023-01-06T08:58:39;22.07;;;13.70;;
35961;SDS011;22044;48.298;10.008;2023-01-06T09:01:26;25.17;;;14.17;;
35961;SDS011;22044;48.298;10.008;2023-01-06T09:04:13;22.60;;;13.83;;
35961;SDS011;22044;48.298;10.008;2023-01-06T09:06:59;23.93;;;13.93;;
35961;SDS011;22044;48.298;10.008;2023-01-06T09:09:45;23.67;;;14.70;;
35961;SDS011;22044;48.298;10.008;2023-01-06T09:12:30;19.87;;;12.70;;
35961;SDS011;22044;48.298;10.008;2023-01-06T09:15:17;22.60;;;13.60;;
35961;SDS011;22044;48.298;10.008;2023-01-06T09:18:03;21.77;;;13.30;;
35961;SDS011;22044;48.298;10.008;2023-01-06T09:20:48;23.30;;;13.50;;
35961;SDS011;22044;48.298;10.008;2023-01-06T09:23:34;24.00;;;14.60;;
35961;SDS011;22044;48.298;10.008;2023-01-06T09:26:20;22.40;;;13.50;;
35961;SDS011;22044;48.298;10.008;2023-01-06T09:29:05;22.03;;;13.13;;
35961;SDS011;22044;48.298;10.008;2023-01-06T09:31:52;20.23;;;12.93;;
35961;SDS011;22044;48.298;10.008;2023-01-06T09:34:37;25.07;;;12.73;;
35961;SDS011;22044;48.298;10.008;2023-01-06T09:37:23;21.03;;;12.13;;
35961;SDS011;22044;48.298;10.008;2023-01-06T09:40:10;17.63;;;11.10;;
35961;SDS011;22044;48.298;10.008;2023-01-06T09:43:03;15.07;;;9.53;;
35961;SDS011;22044;48.298;10.008;2023-01-06T09:46:01;14.13;;;9.20;;
35961;SDS011;22044;48.298;10.008;2023-01-06T09:48:53;10.87;;;7.63;;
35961;SDS011;22044;48.298;10.008;2023-01-06T09:51:42;11.03;;;7.03;;
35961;SDS011;22044;48.298;10.008;2023-01-06T09:54:30;10.13;;;6.63;;
35961;SDS011;22044;48.298;10.008;2023-01-06T09:57:19;9.80;;;6.13;;
35961;SDS011;22044;48.298;10.008;2023-01-06T10:00:16;7.87;;;5.93;;
35961;SDS011;22044;48.298;10.008;2023-01-06T10:03:12;8.53;;;6.53;;
35961;SDS011;22044;48.298;10.008;2023-01-06T10:06:03;9.03;;;6.33;;
35961;SDS011;22044;48.298;10.008;2023-01-06T10:08:56;9.47;;;6.83;;
35961;SDS011;22044;48.298;10.008;2023-01-06T10:11:53;7.77;;;6.03;;
35961;SDS011;22044;48.298;10.008;2023-01-06T10:14:48;9.10;;;6.33;;
35961;SDS011;22044;48.298;10.008;2023-01-06T10:17:44;9.10;;;5.63;;
35961;SDS011;22044;48.298;10.008;2023-01-06T10:27:12;8.90;;;6.27;;
35961;SDS011;22044;48.298;10.008;2023-01-06T10:30:05;7.73;;;6.00;;
35961;SDS011;22044;48.298;10.008;2023-01-06T10:33:01;6.73;;;5.43;;
35961;SDS011;22044;48.298;10.008;2023-01-06T10:35:48;7.77;;;6.10;;
35961;SDS011;22044;48.298;10.008;2023-01-06T10:38:36;6.77;;;5.23;;
35961;SDS011;22044;48.298;10.008;2023-01-06T10:41:26;6.90;;;5.27;;
35961;SDS011;22044;48.298;10.008;2023-01-06T10:44:23;7.07;;;5.27;;
35961;SDS011;22044;48.298;10.008;2023-01-06T10:47:10;7.13;;;6.00;;
35961;SDS011;22044;48.298;10.008;2023-01-06T10:50:02;8.20;;;6.00;;
35961;SDS011;22044;48.298;10.008;2023-01-06T10:52:49;10.33;;;5.00;;
35961;SDS011;22044;48.298;10.008;2023-01-06T10:55:39;6.93;;;5.30;;
35961;SDS011;22044;48.298;10.008;2023-01-06T10:58:32;6.53;;;5.37;;
35961;SDS011;22044;48.298;10.008;2023-01-06T11:01:23;6.70;;;5.17;;
35961;SDS011;22044;48.298;10.008;2023-01-06T11:04:11;5.50;;;4.30;;
35961;SDS011;22044;48.298;10.008;2023-01-06T11:06:58;6.53;;;4.17;;
35961;SDS011;22044;48.298;10.008;2023-01-06T11:09:44;3.93;;;3.53;;
35961;SDS011;22044;48.298;10.008;2023-01-06T11:12:30;5.30;;;4.00;;
35961;SDS011;22044;48.298;10.008;2023-01-06T11:15:18;4.57;;;3.90;;
35961;SDS011;22044;48.298;10.008;2023-01-06T11:18:18;4.13;;;3.43;;
35961;SDS011;22044;48.298;10.008;2023-01-06T11:21:07;4.97;;;3.83;;
35961;SDS011;22044;48.298;10.008;2023-01-06T11:23:53;4.67;;;3.60;;
35961;SDS011;22044;48.298;10.008;2023-01-06T11:26:59;4.70;;;3.40;;
35961;SDS011;22044;48.298;10.008;2023-01-06T11:29:46;4.90;;;3.60;;
35961;SDS011;22044;48.298;10.008;2023-01-06T11:32:31;4.53;;;3.90;;
35961;SDS011;22044;48.298;10.008;2023-01-06T11:35:19;4.90;;;3.47;;
35961;SDS011;22044;48.298;10.008;2023-01-06T11:38:09;4.70;;;3.80;;
35961;SDS011;22044;48.298;10.008;2023-01-06T11:40:58;3.90;;;3.30;;
35961;SDS011;22044;48.298;10.008;2023-01-06T11:43:43;4.33;;;3.73;;
35961;SDS011;22044;48.298;10.008;2023-01-06T11:46:29;4.07;;;3.30;;
35961;SDS011;22044;48.298;10.008;2023-01-06T11:49:16;4.37;;;3.47;;
35961;SDS011;22044;48.298;10.008;2023-01-06T11:52:19;4.20;;;3.80;;
35961;SDS011;22044;48.298;10.008;2023-01-06T11:55:18;3.33;;;3.03;;
35961;SDS011;22044;48.298;10.008;2023-01-06T11:58:07;3.37;;;2.90;;
35961;SDS011;22044;48.298;10.008;2023-01-06T12:00:57;3.57;;;3.10;;
35961;SDS011;22044;48.298;10.008;2023-01-06T12:03:48;3.30;;;2.67;;
35961;SDS011;22044;48.298;10.008;2023-01-06T12:06:39;2.60;;;2.40;;
35961;SDS011;22044;48.298;10.008;2023-01-06T12:09:29;3.07;;;2.27;;
35961;SDS011;22044;48.298;10.008;2023-01-06T12:12:18;2.60;;;2.40;;
35961;SDS011;22044;48.298;10.008;2023-01-06T12:15:08;3.63;;;3.10;;
35961;SDS011;22044;48.298;10.008;2023-01-06T12:17:57;3.70;;;3.23;;
35961;SDS011;22044;48.298;10.008;2023-01-06T12:20:46;2.90;;;2.60;;
35961;SDS011;22044;48.298;10.008;2023-01-06T12:23:34;3.70;;;2.90;;
35961;SDS011;22044;48.298;10.008;2023-01-06T12:26:24;2.93;;;2.40;;
35961;SDS011;22044;48.298;10.008;2023-01-06T12:29:11;3.07;;;2.50;;
35961;SDS011;22044;48.298;10.008;2023-01-06T12:32:03;2.80;;;2.50;;
35961;SDS011;22044;48.298;10.008;2023-01-06T12:34:53;4.00;;;3.20;;
35961;SDS011;22044;48.298;10.008;2023-01-06T12:37:44;2.63;;;2.30;;
35961;SDS011;22044;48.298;10.008;2023-01-06T12:40:34;3.60;;;2.80;;
35961;SDS011;22044;48.298;10.008;2023-01-06T12:43:27;3.03;;;2.73;;
35961;SDS011;22044;48.298;10.008;2023-01-06T12:46:16;3.40;;;2.70;;
35961;SDS011;22044;48.298;10.008;2023-01-06T12:49:11;3.83;;;3.03;;
35961;SDS011;22044;48.298;10.008;2023-01-06T12:52:03;14.90;;;9.53;;
35961;SDS011;22044;48.298;10.008;2023-01-06T12:54:54;4.00;;;2.50;;
35961;SDS011;22044;48.298;10.008;2023-01-06T12:57:48;2.50;;;2.30;;
35961;SDS011;22044;48.298;10.008;2023-01-06T13:00:40;2.73;;;2.47;;
35961;SDS011;22044;48.298;10.008;2023-01-06T13:06:37;2.30;;;2.10;;
35961;SDS011;22044;48.298;10.008;2023-01-06T13:09:39;2.50;;;2.00;;
35961;SDS011;22044;48.298;10.008;2023-01-06T13:12:39;2.73;;;2.53;;
35961;SDS011;22044;48.298;10.008;2023-01-06T13:15:32;1.90;;;1.80;;
35961;SDS011;22044;48.298;10.008;2023-01-06T13:18:26;2.10;;;1.90;;
35961;SDS011;22044;48.298;10.008;2023-01-06T13:21:16;2.33;;;2.00;;
35961;SDS011;22044;48.298;10.008;2023-01-06T13:24:08;2.17;;;2.00;;
35961;SDS011;22044;48.298;10.008;2023-01-06T13:33:52;1.77;;;1.67;;
35961;SDS011;22044;48.298;10.008;2023-01-06T13:37:02;2.57;;;2.10;;
35961;SDS011;22044;48.298;10.008;2023-01-06T13:39:58;1.60;;;1.50;;
35961;SDS011;22044;48.298;10.008;2023-01-06T13:42:48;1.20;;;1.03;;
35961;SDS011;22044;48.298;10.008;2023-01-06T13:45:39;1.90;;;1.70;;
35961;SDS011;22044;48.298;10.008;2023-01-06T13:48:30;4.30;;;2.70;;
35961;SDS011;22044;48.298;10.008;2023-01-06T13:51:22;2.07;;;1.80;;
35961;SDS011;22044;48.298;10.008;2023-01-06T13:57:36;1.20;;;1.10;;
35961;SDS011;22044;48.298;10.008;2023-01-06T14:00:24;2.43;;;2.20;;
35961;SDS011;22044;48.298;10.008;2023-01-06T14:03:20;7.77;;;5.73;;
35961;SDS011;22044;48.298;10.008;2023-01-06T14:06:11;2.57;;;1.80;;
35961;SDS011;22044;48.298;10.008;2023-01-06T14:08:58;2.10;;;1.90;;
35961;SDS011;22044;48.298;10.008;2023-01-06T14:11:45;4.17;;;2.67;;
35961;SDS011;22044;48.298;10.008;2023-01-06T14:14:31;2.80;;;1.90;;
35961;SDS011;22044;48.298;10.008;2023-01-06T14:17:28;1.90;;;1.80;;
35961;SDS011;22044;48.298;10.008;2023-01-06T14:20:25;1.77;;;1.67;;
35961;SDS011;22044;48.298;10.008;2023-01-06T14:23:17;2.13;;;1.80;;
35961;SDS011;22044;48.298;10.008;2023-01-06T14:26:08;2.20;;;2.00;;
35961;SDS011;22044;48.298;10.008;2023-01-06T14:28:54;1.87;;;1.77;;
35961;SDS011;22044;48.298;10.008;2023-01-06T14:32:05;2.93;;;1.80;;
35961;SDS011;22044;48.298;10.008;2023-01-06T14:34:53;1.90;;;1.80;;
35961;SDS011;22044;48.298;10.008;2023-01-06T14:37:42;1.80;;;1.70;;
35961;SDS011;22044;48.298;10.008;2023-01-06T14:40:31;2.40;;;1.97;;
35961;SDS011;22044;48.298;10.008;2023-01-06T14:43:36;5.40;;;4.37;;
35961;SDS011;22044;48.298;10.008;2023-01-06T14:46:27;2.70;;;2.50;;
35961;SDS011;22044;48.298;10.008;2023-01-06T14:49:17;1.77;;;1.63;;
35961;SDS011;22044;48.298;10.008;2023-01-06T14:52:08;1.77;;;1.63;;
35961;SDS011;22044;48.298;10.008;2023-01-06T14:54:56;2.07;;;1.80;;
35961;SDS011;22044;48.298;10.008;2023-01-06T14:57:42;2.17;;;1.73;;
35961;SDS011;22044;48.298;10.008;2023-01-06T15:00:29;3.30;;;2.90;;
35961;SDS011;22044;48.298;10.008;2023-01-06T15:03:17;2.77;;;2.57;;
35961;SDS011;22044;48.298;10.008;2023-01-06T15:06:09;3.37;;;3.07;;
35961;SDS011;22044;48.298;10.008;2023-01-06T15:12:19;4.37;;;2.70;;
35961;SDS011;22044;48.298;10.008;2023-01-06T15:15:13;3.83;;;2.47;;
35961;SDS011;22044;48.298;10.008;2023-01-06T15:18:06;6.77;;;5.10;;
35961;SDS011;22044;48.298;10.008;2023-01-06T15:20:53;4.17;;;3.60;;
35961;SDS011;22044;48.298;10.008;2023-01-06T15:23:41;1.87;;;1.70;;
35961;SDS011;22044;48.298;10.008;2023-01-06T15:26:29;3.60;;;2.43;;
35961;SDS011;22044;48.298;10.008;2023-01-06T15:29:16;1.83;;;1.73;;
35961;SDS011;22044;48.298;10.008;2023-01-06T15:32:04;3.43;;;2.90;;
35961;SDS011;22044;48.298;10.008;2023-01-06T15:34:57;3.83;;;1.77;;
35961;SDS011;22044;48.298;10.008;2023-01-06T15:37:43;2.80;;;2.50;;
35961;SDS011;22044;48.298;10.008;2023-01-06T15:40:30;1.70;;;1.60;;
35961;SDS011;22044;48.298;10.008;2023-01-06T15:43:16;2.47;;;2.27;;
35961;SDS011;22044;48.298;10.008;2023-01-06T15:46:04;3.57;;;3.03;;
35961;SDS011;22044;48.298;10.008;2023-01-06T15:48:52;2.30;;;2.00;;
35961;SDS011;22044;48.298;10.008;2023-01-06T15:51:39;2.60;;;2.40;;
35961;SDS011;22044;48.298;10.008;2023-01-06T15:54:25;1.97;;;1.77;;
35961;SDS011;22044;48.298;10.008;2023-01-06T15:57:13;3.17;;;2.73;;
35961;SDS011;22044;48.298;10.008;2023-01-06T16:00:00;3.33;;;2.90;;
35961;SDS011;22044;48.298;10.008;2023-01-06T16:02:49;3.03;;;2.70;;
35961;SDS011;22044;48.298;10.008;2023-01-06T16:05:39;2.50;;;2.30;;
35961;SDS011;22044;48.298;10.008;2023-01-06T16:08:28;2.43;;;2.23;;
35961;SDS011;22044;48.298;10.008;2023-01-06T16:11:24;1.93;;;1.83;;
35961;SDS011;22044;48.298;10.008;2023-01-06T16:14:29;2.00;;;1.90;;
35961;SDS011;22044;48.298;10.008;2023-01-06T16:17:21;1.90;;;1.70;;
35961;SDS011;22044;48.298;10.008;2023-01-06T16:20:20;1.80;;;1.70;;
35961;SDS011;22044;48.298;10.008;2023-01-06T16:23:14;2.17;;;1.73;;
35961;SDS011;22044;48.298;10.008;2023-01-06T16:26:09;3.37;;;2.27;;
35961;SDS011;22044;48.298;10.008;2023-01-06T16:28:58;2.97;;;2.03;;
35961;SDS011;22044;48.298;10.008;2023-01-06T16:31:45;2.23;;;2.03;;
35961;SDS011;22044;48.298;10.008;2023-01-06T16:34:31;2.60;;;2.40;;
35961;SDS011;22044;48.298;10.008;2023-01-06T16:37:17;2.40;;;2.20;;
35961;SDS011;22044;48.298;10.008;2023-01-06T16:40:03;2.50;;;2.27;;
35961;SDS011;22044;48.298;10.008;2023-01-06T16:42:55;2.30;;;2.10;;
35961;SDS011;22044;48.298;10.008;2023-01-06T16:45:43;2.90;;;2.70;;
35961;SDS011;22044;48.298;10.008;2023-01-06T16:48:33;2.70;;;2.43;;
35961;SDS011;22044;48.298;10.008;2023-01-06T16:51:19;2.93;;;2.53;;
35961;SDS011;22044;48.298;10.008;2023-01-06T16:54:07;2.50;;;2.30;;
35961;SDS011;22044;48.298;10.008;2023-01-06T16:56:54;3.53;;;2.60;;